• Join FlightAware (Why Join?)
  • Login
  • US Flag 
02:10AM EDT


 

Airport Tracker/Info


-or-


 

Live Flight TrackerFlight Track Log ✈ BJS535 ✈ 10-May-2013 ✈ KBED - MBPV / PLS

Flight Track Log - Related Links

Times and Time Zones

All times are in EDT time to prevent confusion due to time zone crossing. See the BJS535 flight status page for this flight to view local times or setup timezone preferences in your user account.

Time Position Orientation Groundspeed Altitude Reporting Facility
EDT Latitude Longitude Course Direction KTS MPH feet Rate Location/Type
01:14PM 42.4667 -71.3167 208° Southwest 158 182 1,200  Level KA90
01:16PM 42.4667 -71.4167 270° West 222 255 2,500 780 Climbing KA90
01:17PM 42.4167 -71.4167 180° South 228 262 3,200 1,980 Climbing KA90
01:18PM 42.3500 -71.4500 200° South 261 300 6,500 2,820 Climbing KA90
01:19PM 42.3031 -71.2975 113° Southeast 323 372 10,600 2,460 Climbing Boston Center
01:20PM 41.8272 -70.7377 208° Southwest  Level FlightAware Approximate
01:20PM 42.2439 -71.2231 137° Southeast 306 352 12,900  Level Boston Center
01:21PM 42.1553 -71.1239 140° Southeast 355 409 14,700 2,280 Climbing Boston Center
01:22PM 42.0833 -71.0358 138° Southeast 390 449 17,500 2,760 Climbing Boston Center
01:23PM 41.9986 -70.9372 139° Southeast 395 455 20,300 2,700 Climbing Boston Center
01:24PM 41.9117 -70.8361 139° Southeast 395 455 22,900 2,160 Climbing Boston Center
01:25PM 41.8067 -70.7831 159° South 407 468 24,700 1,740 Climbing Boston Center
01:26PM 41.7011 -70.8303 198° South 371 427 26,400 1,800 Climbing Boston Center
01:27PM 41.5894 -70.8886 201° Southwest 393 452 28,400 1,920 Climbing Boston Center
01:28PM 41.4733 -70.9356 197° South 419 482 30,300 1,860 Climbing Boston Center
01:29PM 41.3594 -70.9881 199° South 431 496 32,200 1,620 Climbing Boston Center
01:31PM 41.1411 -71.0778 197° South 444 511 34,900 1,500 Climbing New York Center
01:32PM 41.0222 -71.1211 195° South 444 511 36,500 1,440 Climbing New York Center
01:33PM 40.9075 -71.1672 197° South 438 504 37,900 1,260 Climbing New York Center
01:34PM 40.7906 -71.2183 198° South 438 504 39,100 1,020 Climbing New York Center
01:35PM 40.6739 -71.2667 197° South 438 504 40,000 900 Climbing New York Center
01:36PM 40.5611 -71.3097 196° South 438 504 41,000 780 Climbing New York Center
01:37PM 40.4464 -71.3442 193° South 433 498 41,700 420 Climbing New York Center
01:38PM 40.3275 -71.3783 192° South 433 498 41,900 240 Climbing New York Center
01:39PM 40.2106 -71.4125 193° South 433 498 42,200 300 Climbing New York Center
01:40PM 40.0894 -71.4522 194° South 433 498 42,600 360 Climbing New York Center
01:41PM 39.9725 -71.4833 192° South 433 498 43,000 180 Climbing New York Center
01:42PM 39.8533 -71.5200 193° South 433 498 43,000  Level New York Center
01:43PM 39.7322 -71.5564 193° South 438 504 43,000  Level New York Center
01:44PM 39.6069 -71.5953 193° South 446 513 43,000  Level New York Center
01:45PM 39.4817 -71.6314 193° South 457 526 43,000  Level New York Center
01:46PM 39.3606 -71.6647 192° South 457 526 43,000  Level New York Center
01:47PM 39.2372 -71.7008 193° South 452 520 43,000  Level New York Center
01:48PM 39.1139 -71.7339 192° South 452 520 43,000  Level New York Center
01:49PM 38.9928 -71.7694 193° South 452 520 43,000  Level New York Center
01:50PM 38.8714 -71.8025 192° South 452 520 43,000  Level New York Center
01:51PM 38.7503 -71.8381 193° South 452 520 43,000  Level New York Center
01:52PM 38.6267 -71.8811 195° South 452 520 43,000  Level New York Center
01:53PM 38.5056 -71.9139 192° South 452 520 43,000  Level New York Center
01:54PM 38.3819 -71.9464 192° South 452 520 43,000  Level New York Center
01:55PM 38.2586 -71.9867 194° South 452 520 43,000  Level New York Center
01:56PM 38.1353 -72.0161 191° South 452 520 43,000  Level New York Center
01:57PM 38.0097 -72.0481 191° South 452 520 43,000  Level New York Center
01:58PM 37.8861 -72.0881 194° South 452 520 43,000  Level New York Center
01:59PM 37.7628 -72.1200 192° South 452 520 43,000  Level New York Center
02:00PM 37.6372 -72.1594 194° South 452 520 43,000  Level New York Center
02:01PM 37.5219 -72.1914 192° South 430 495 43,000  Level New York Center
02:02PM 37.3964 -72.2228 191° South 451 519 43,000  Level New York Center
02:03PM 37.2728 -72.2597 193° South 451 519 43,000  Level New York Center
02:04PM 37.1536 -72.2936 193° South 452 520 43,000  Level New York Center
02:05PM 37.0197 -72.3247 191° South 457 526 43,000  Level New York Center
02:06PM 36.8961 -72.3586 192° South 462 532 43,000  Level New York Center
02:07PM 36.7642 -72.3919 191° South 468 539 43,000  Level New York Center
02:08PM 36.6306 -72.3967 182° South 473 544 43,000  Level New York Center
02:09PM 36.4950 -72.3964 180° South 473 544 43,000  Level New York Center
02:10PM 36.3636 -72.3989 181° South 480 552 43,000  Level New York Center
02:11PM 36.2342 -72.3986 180° South 474 545 43,000  Level New York Center
02:12PM 36.1028 -72.4008 181° South 479 551 43,000  Level New York Center
02:13PM 35.9711 -72.4006 180° South 477 549 43,000  Level New York Center
02:14PM 35.8439 -72.4028 181° South 471 542 43,000  Level New York Center
02:15PM 35.7125 -72.4028 180° South 478 550 43,000  Level New York Center
02:16PM 35.5811 -72.4050 181° South 473 544 43,000  Level New York Center
02:17PM 35.4497 -72.4047 180° South 473 544 43,000  Level New York Center
02:18PM 35.3225 -72.4044 180° South 473 544 43,000  Level New York Center
02:19PM 35.1847 -72.4092 182° South 479 551 43,000  Level New York Center
02:20PM 35.0594 -72.4092 180° South 471 542 43,000  Level New York Center
02:21PM 34.9261 -72.3961 175° South 477 549 43,000  Level New York Center
02:22PM 35.0500 -72.4167 175° South 478 550 43,000  Level New York Oceanic (ODAPS)
02:23PM 34.6594 -72.3706 175° South 476 548 43,000  Level New York Center
02:25PM 34.5042 -72.3547 175° South  Level FlightAware Approximate
02:32PM 33.6857 -72.2205 167° South  Level FlightAware Approximate
02:33PM 33.5705 -72.1881 167° South  Level FlightAware Approximate
02:34PM 33.4553 -72.1557 167° South  Level FlightAware Approximate
02:35PM 33.3402 -72.1235 167° South  Level FlightAware Approximate
02:36PM 33.2250 -72.0913 167° South  Level FlightAware Approximate
02:37PM 33.1098 -72.0592 167° South  Level FlightAware Approximate
02:38PM 32.9945 -72.0273 167° South  Level FlightAware Approximate
02:39PM 32.8792 -71.9957 167° South  Level FlightAware Approximate
02:39PM 33.9833 -72.3000 167° South 467 537 43,000  Level New York Oceanic (ODAPS)
02:40PM 32.7640 -71.9642 167° South  Level FlightAware Approximate
02:41PM 32.6487 -71.9328 167° South  Level FlightAware Approximate
02:42PM 32.5334 -71.9015 167° South  Level FlightAware Approximate
02:43PM 32.4180 -71.8703 167° South  Level FlightAware Approximate
02:44PM 32.3027 -71.8391 167° South  Level FlightAware Approximate
02:45PM 32.1874 -71.8080 167° South  Level FlightAware Approximate
02:46PM 31.6975 -71.6897 168° South 467 537 43,000  Level FlightAware Transoceanic
02:47PM 31.5704 -71.6567 168° South 467 537 43,000  Level FlightAware Transoceanic
02:48PM 31.4433 -71.6238 168° South 467 537 43,000  Level FlightAware Transoceanic
02:49PM 31.3163 -71.5910 168° South 467 537 43,000  Level FlightAware Transoceanic
02:50PM 31.1892 -71.5582 168° South 467 537 43,000  Level FlightAware Transoceanic
02:51PM 31.0620 -71.5256 168° South 467 537 43,000  Level FlightAware Transoceanic
02:52PM 30.9349 -71.4930 168° South 467 537 43,000  Level FlightAware Transoceanic
02:53PM 30.8078 -71.4605 168° South 467 537 43,000  Level FlightAware Transoceanic
02:54PM 30.6807 -71.4281 168° South 467 537 43,000  Level FlightAware Transoceanic
02:55PM 30.5535 -71.3959 168° South 467 537 43,000  Level FlightAware Transoceanic
02:56PM 30.4264 -71.3636 168° South 467 537 43,000  Level FlightAware Transoceanic
02:57PM 30.2992 -71.3315 168° South 467 537 43,000  Level FlightAware Transoceanic
02:58PM 30.1721 -71.2994 168° South 467 537 43,000  Level FlightAware Transoceanic
02:59PM 30.0449 -71.2675 168° South 467 537 43,000  Level FlightAware Transoceanic
03:00PM 29.9177 -71.2356 168° South 467 537 43,000  Level FlightAware Transoceanic
03:01PM 29.7905 -71.2038 168° South 467 537 43,000  Level FlightAware Transoceanic
03:02PM 29.6633 -71.1720 168° South 467 537 43,000  Level FlightAware Transoceanic
03:03PM 29.5361 -71.1404 168° South 467 537 43,000  Level FlightAware Transoceanic
03:04PM 29.4089 -71.1088 168° South 467 537 43,000  Level FlightAware Transoceanic
03:05PM 29.2817 -71.0773 168° South 467 537 43,000  Level FlightAware Transoceanic
03:06PM 29.1545 -71.0459 168° South 467 537 43,000  Level FlightAware Transoceanic
03:07PM 29.0272 -71.0146 168° South 467 537 43,000  Level FlightAware Transoceanic
03:08PM 28.9000 -70.9833 168° South 467 537 43,000  Level FlightAware Transoceanic
03:09PM 28.7782 -70.9531 168° South 467 537 43,000  Level FlightAware Transoceanic
03:10PM 28.6564 -70.9230 168° South 467 537 43,000  Level FlightAware Transoceanic
03:11PM 28.5346 -70.8930 168° South 467 537 43,000  Level FlightAware Transoceanic
03:12PM 28.4128 -70.8630 168° South 467 537 43,000  Level FlightAware Transoceanic
03:12PM 28.9000 -70.9833 168° South 447 514 43,000  Level New York Oceanic (ODAPS)
03:13PM 28.2910 -70.8331 168° South 467 537 43,000  Level FlightAware Transoceanic
03:14PM 28.1692 -70.8033 168° South 467 537 43,000  Level FlightAware Transoceanic
03:15PM 28.0474 -70.7735 168° South 467 537 43,000  Level FlightAware Transoceanic
03:16PM 27.9256 -70.7438 168° South 467 537 43,000  Level FlightAware Transoceanic
03:17PM 27.8038 -70.7142 168° South 467 537 43,000  Level FlightAware Transoceanic
03:18PM 27.9256 -70.7438 168° South 447 514 43,000  Level FlightAware Transoceanic
03:19PM 27.8038 -70.7142 168° South 447 514 43,000  Level FlightAware Transoceanic
03:20PM 27.6819 -70.6846 168° South 447 514 43,000  Level FlightAware Transoceanic
03:21PM 27.5601 -70.6551 168° South 447 514 43,000  Level FlightAware Transoceanic
03:22PM 27.4382 -70.6257 168° South 447 514 43,000  Level FlightAware Transoceanic
03:23PM 27.3164 -70.5963 168° South 447 514 43,000  Level FlightAware Transoceanic
03:24PM 27.1945 -70.5670 168° South 447 514 43,000  Level FlightAware Transoceanic
03:25PM 27.0726 -70.5378 168° South 447 514 43,000  Level FlightAware Transoceanic
03:26PM 26.9508 -70.5086 168° South 447 514 43,000  Level FlightAware Transoceanic
03:27PM 26.8289 -70.4795 168° South 447 514 43,000  Level FlightAware Transoceanic
03:28PM 26.7070 -70.4504 168° South 447 514 43,000  Level FlightAware Transoceanic
03:29PM 26.5851 -70.4214 168° South 447 514 43,000  Level FlightAware Transoceanic
03:30PM 26.4632 -70.3925 168° South 447 514 43,000  Level FlightAware Transoceanic
03:31PM 26.3413 -70.3636 168° South 447 514 43,000  Level FlightAware Transoceanic
03:32PM 26.2194 -70.3348 168° South 447 514 43,000  Level FlightAware Transoceanic
03:33PM 26.0975 -70.3061 168° South 447 514 43,000  Level FlightAware Transoceanic
03:34PM 25.9756 -70.2774 168° South 447 514 43,000  Level FlightAware Transoceanic
03:35PM 25.8536 -70.2488 168° South 447 514 43,000  Level FlightAware Transoceanic
03:36PM 25.7317 -70.2202 168° South 447 514 43,000  Level FlightAware Transoceanic
03:37PM 25.6098 -70.1917 168° South 447 514 43,000  Level FlightAware Transoceanic
03:38PM 25.4878 -70.1632 168° South 447 514 43,000  Level FlightAware Transoceanic
03:38PM 25.4542 -70.1528 217° Southwest 459 528 43,000  Level Miami Center
03:39PM 25.3659 -70.1348 168° South 447 514 43,000  Level FlightAware Transoceanic
03:39PM 25.3275 -70.1208 167° South 464 534 43,000  Level Miami Center
03:40PM 25.2439 -70.1065 168° South 447 514 43,000  Level FlightAware Transoceanic
03:40PM 25.2097 -70.0975 170° South 454 522 43,000  Level Miami Center
03:41PM 25.1220 -70.0782 168° South 447 514 43,000  Level FlightAware Transoceanic
03:42PM 25.0000 -70.0500 217° Southwest 447 514 43,000  Level FlightAware Transoceanic
03:42PM 24.9675 -70.0928 179° South 433 498 43,000  Level Miami Center
03:43PM 24.9036 -70.1306 217° Southwest 447 514 43,000  Level FlightAware Transoceanic
03:43PM 24.8617 -70.1511 207° Southwest 421 484 43,000  Level Miami Center
03:44PM 24.7644 -70.2203 213° Southwest 421 484 43,000  Level Miami Center
03:45PM 24.6681 -70.3056 219° Southwest 440 506 43,000  Level Miami Center
03:46PM 24.5642 -70.3611 206° Southwest 429 494 43,000 -60 Level Miami Center
03:47PM 24.4650 -70.4303 212° Southwest 424 488 42,900 -12,000 Descending Miami Center
03:48PM 24.3678 -70.4992 213° Southwest 424 488 19,000 -1,560 Descending Miami Center
03:49PM 24.2622 -70.5658 210° Southwest 429 494 39,800 9,780 Climbing Miami Center
03:50PM 24.1833 -70.6314 217° Southwest 434 499 38,600 -1,500 Descending Miami Center
03:51PM 24.0617 -70.7125 211° Southwest 440 506 36,800 -2,100 Descending Miami Center
03:52PM 23.9583 -70.7900 214° Southwest 440 506 34,400 -2,340 Descending Miami Center
03:53PM 23.8544 -70.8542 209° Southwest 445 512 32,200 -1,200 Descending Miami Center
03:54PM 23.7489 -70.9294 213° Southwest 445 512 32,000 -120 Descending Miami Center
03:55PM 23.6478 -71.0067 215° Southwest 439 505 32,000 -900 Level Miami Center
03:56PM 23.5400 -71.0794 212° Southwest 446 513 30,300 -2,100 Descending Miami Center
03:57PM 23.4300 -71.1525 211° Southwest 459 528 27,900 -2,460 Descending Miami Center
03:58PM 23.3222 -71.2294 213° Southwest 469 540 25,400 -2,520 Descending Miami Center
03:59PM 23.2142 -71.2931 208° Southwest 463 533 22,900 -2,520 Descending Miami Center
04:00PM 23.1103 -71.3697 214° Southwest 463 533 20,400 -2,520 Descending Miami Center
04:01PM 23.0128 -71.4369 212° Southwest 447 514 17,900 -2,340 Descending Miami Center
04:02PM 22.9189 -71.5017 212° Southwest 426 490 15,800 -2,040 Descending Miami Center
04:03PM 22.8231 -71.5642 211° Southwest 411 473 13,900 -1,920 Descending Miami Center
04:04PM 22.7375 -71.6261 214° Southwest 393 452 12,000 -1,920 Descending Miami Center
04:05PM 22.6539 -71.6792 210° Southwest 370 426 10,100 -1,920 Descending Miami Center
04:06PM 22.5722 -71.7361 213° Southwest 360 414 8,200 -1,560 Descending Miami Center
04:07PM 22.4928 -71.7911 213° Southwest 354 407 7,000 -600 Descending Miami Center
04:08PM 22.4217 -71.8522 218° Southwest 349 402 7,000  Level Miami Center
04:09PM 22.3531 -71.9242 224° Southwest 349 402 7,000 -600 Level Miami Center
04:10PM 22.2886 -71.9939 225° Southwest 344 396 5,800 -1,200 Descending Miami Center
04:12PM 22.0972 -72.0353 214° Southwest  Level FlightAware Approximate
04:19PM 21.7667 -72.2667 215° Southwest  Level FlightAware Approximate
04:20PM 21.7736 -72.2659 215° Southwest  Level Estimated
04:21PM 21.7667 -72.2667 215° Southwest  Level FlightAware Approximate
04:22PM 21.7736 -72.2659 215° Southwest  Level Estimated
04:23PM 21.7667 -72.2667 215° Southwest  Level FlightAware Approximate
04:24PM 21.7736 -72.2659 215° Southwest  Level Estimated
04:25PM 21.7667 -72.2667 215° Southwest  Level FlightAware Approximate
04:26PM 21.7736 -72.2659 215° Southwest  Level Estimated
04:27PM 21.7667 -72.2667 215° Southwest  Level FlightAware Approximate
04:28PM 21.7736 -72.2659 215° Southwest  Level Estimated
04:29PM 21.7667 -72.2667 215° Southwest  Level FlightAware Approximate
04:30PM 21.7736 -72.2659 215° Southwest  Level Estimated